Time;durP1;ratioP1;P1;durP2;ratioP2;P2;SDS_P1;SDS_P2;PMS_P1;PMS_P2;Temp;Humidity;BMP_temperature;BMP_pressure;BME280_temperature;BME280_humidity;BME280_pressure;Samples;Min_cycle;Max_cycle;Signal;HPM_P1;HPM_P2
2022/03/26 00:01:04;;;;;;;32.87;20.17;;;9.40;41.00;;;9.94;36.79;98642.41;5030410;28;20049;-57
2022/03/26 00:03:33;;;;;;;32.00;20.97;;;9.30;41.10;;;9.92;36.58;98642.53;5029383;28;20053;-57
2022/03/26 00:06:01;;;;;;;32.67;19.70;;;9.30;41.20;;;9.89;36.80;98648.13;5030149;28;20046;-58
2022/03/26 00:08:29;;;;;;;32.63;20.43;;;9.30;41.20;;;9.85;36.90;98649.38;5027722;28;20060;-58
2022/03/26 00:10:57;;;;;;;32.70;19.23;;;9.20;41.40;;;9.79;36.87;98648.09;5029816;28;20393;-58
2022/03/26 00:13:25;;;;;;;39.27;20.27;;;9.10;41.70;;;9.72;37.10;98646.91;5029837;28;20140;-57
2022/03/26 00:15:53;;;;;;;33.00;21.20;;;9.10;42.10;;;9.70;37.20;98643.56;5030408;28;20064;-59
2022/03/26 00:18:20;;;;;;;38.37;21.77;;;9.10;42.20;;;9.66;37.27;98639.47;5032186;28;20041;-58
2022/03/26 00:20:48;;;;;;;38.07;20.73;;;9.10;42.20;;;9.64;37.45;98642.25;5032871;28;20353;-57
2022/03/26 00:23:17;;;;;;;34.07;20.23;;;9.00;42.40;;;9.61;37.53;98641.66;5032136;28;20354;-58
2022/03/26 00:25:45;;;;;;;37.43;21.07;;;9.00;42.30;;;9.46;37.67;98642.00;5031089;28;20041;-58
2022/03/26 00:28:13;;;;;;;36.03;19.43;;;8.70;42.80;;;9.42;37.68;98645.91;5032545;28;20138;-58
2022/03/26 00:30:41;;;;;;;28.87;18.83;;;8.70;42.90;;;9.40;37.52;98645.19;5029611;28;20228;-58
2022/03/26 00:33:09;;;;;;;30.37;19.57;;;8.70;43.20;;;9.36;37.93;98646.41;5030096;28;20398;-57
2022/03/26 00:35:37;;;;;;;35.57;20.10;;;8.70;43.20;;;9.37;37.92;98648.09;5027677;28;20228;-56
2022/03/26 00:38:05;;;;;;;34.57;20.93;;;8.70;42.90;;;9.38;37.88;98659.56;5027149;28;20067;-57
2022/03/26 00:40:34;;;;;;;34.10;19.53;;;8.80;43.10;;;9.38;38.05;98659.56;5028568;28;20235;-58
2022/03/26 00:43:02;;;;;;;35.47;20.70;;;8.80;43.00;;;9.33;38.16;98659.13;5027598;28;20059;-58
2022/03/26 00:45:30;;;;;;;31.80;18.93;;;8.60;43.20;;;9.27;38.21;98663.13;5027390;28;20053;-57
2022/03/26 00:48:00;;;;;;;36.17;20.30;;;8.50;43.60;;;9.21;38.01;98661.00;4988606;28;1119985;-58
2022/03/26 00:50:28;;;;;;;37.10;21.03;;;8.50;44.10;;;9.20;38.33;98659.28;5028576;28;20399;-58
2022/03/26 00:52:55;;;;;;;37.07;20.90;;;8.50;43.70;;;9.19;38.51;98653.16;5028371;28;20059;-56
2022/03/26 00:55:24;;;;;;;35.13;21.80;;;8.60;43.80;;;9.20;38.09;98656.63;5028013;28;20363;-57
2022/03/26 00:57:52;;;;;;;36.43;19.70;;;8.60;43.40;;;9.18;38.43;98648.78;5028452;28;20056;-56
2022/03/26 01:00:20;;;;;;;33.17;19.13;;;8.60;43.20;;;9.19;38.32;98649.63;5028062;28;20323;-57
2022/03/26 01:02:48;;;;;;;37.13;22.20;;;8.60;43.20;;;9.19;38.42;98646.97;5028383;28;20063;-56
2022/03/26 01:05:16;;;;;;;36.73;21.17;;;8.60;43.30;;;9.16;38.30;98647.25;5028749;28;20110;-57
2022/03/26 01:07:44;;;;;;;33.80;20.20;;;8.60;43.40;;;9.12;38.40;98646.66;5027616;28;20060;-58
2022/03/26 01:10:12;;;;;;;35.30;21.13;;;8.50;43.60;;;9.11;38.61;98649.41;5027174;28;20057;-57
2022/03/26 01:12:40;;;;;;;38.00;20.90;;;8.50;43.70;;;9.10;38.79;98643.28;5026740;28;20057;-56
2022/03/26 01:15:08;;;;;;;34.90;19.47;;;8.50;43.90;;;9.09;38.54;98646.06;5026815;28;20339;-56
2022/03/26 01:17:36;;;;;;;32.63;19.33;;;8.50;43.80;;;9.07;38.50;98646.16;5027151;28;20042;-58
2022/03/26 01:20:05;;;;;;;34.80;19.83;;;8.50;43.70;;;9.05;38.52;98645.47;5025993;28;20033;-57
2022/03/26 01:22:33;;;;;;;38.43;20.47;;;8.40;43.80;;;9.02;38.39;98643.06;5027237;28;20351;-57
2022/03/26 01:25:01;;;;;;;34.50;20.53;;;8.40;43.80;;;9.00;38.94;98650.31;5024278;28;20259;-57
2022/03/26 01:27:28;;;;;;;34.00;21.17;;;8.40;44.20;;;8.93;38.77;98652.63;5028546;28;20057;-58
2022/03/26 01:29:57;;;;;;;32.27;20.50;;;8.30;44.50;;;8.87;39.00;98640.69;5029191;28;20059;-57
2022/03/26 01:32:25;;;;;;;32.53;20.00;;;8.20;44.60;;;8.86;39.18;98648.81;5028429;28;20053;-57
2022/03/26 01:34:53;;;;;;;30.43;18.77;;;8.20;44.50;;;8.80;38.86;98644.84;5028621;28;20042;-57
2022/03/26 01:37:21;;;;;;;39.10;20.80;;;8.10;44.80;;;8.76;39.20;98647.84;5027816;28;20047;-57
2022/03/26 01:39:48;;;;;;;34.90;20.50;;;8.00;45.00;;;8.69;39.47;98652.84;5028440;28;20053;-57
2022/03/26 01:42:17;;;;;;;29.23;18.20;;;8.00;45.40;;;8.70;39.61;98649.19;5027984;28;20041;-58
2022/03/26 01:44:46;;;;;;;35.43;19.47;;;8.00;45.10;;;8.71;39.54;98640.28;5028104;28;20045;-58
2022/03/26 01:47:14;;;;;;;32.97;20.47;;;8.10;45.00;;;8.72;39.72;98641.13;5010114;28;20061;-56
2022/03/26 01:49:41;;;;;;;35.33;20.17;;;8.10;45.20;;;8.70;39.22;98640.41;5028994;28;20380;-57
2022/03/26 01:52:10;;;;;;;37.20;21.40;;;8.10;45.00;;;8.67;39.31;98637.03;5028306;28;20053;-56
2022/03/26 01:54:40;;;;;;;34.57;20.83;;;8.10;44.80;;;8.67;39.67;98642.34;5027607;28;20049;-54
2022/03/26 01:57:10;;;;;;;30.93;18.03;;;8.10;45.10;;;8.58;39.76;98639.59;5029389;28;20049;-56
2022/03/26 01:59:40;;;;;;;34.87;18.37;;;7.90;45.60;;;8.55;39.70;98639.81;5026782;28;20053;-56
2022/03/26 02:02:09;;;;;;;31.17;19.67;;;7.90;46.00;;;8.53;40.07;98636.44;5028076;28;20057;-57
2022/03/26 02:04:37;;;;;;;33.33;17.83;;;7.90;46.10;;;8.51;40.17;98638.38;5027487;28;20133;-56
2022/03/26 02:07:05;;;;;;;33.80;18.30;;;7.90;45.80;;;8.50;39.98;98639.38;5026390;28;20068;-58
2022/03/26 02:09:35;;;;;;;32.77;18.53;;;7.90;45.90;;;8.47;39.92;98637.78;5026674;28;20053;-58
2022/03/26 02:12:27;;;;;;;38.10;20.67;;;7.90;45.80;;;8.46;40.18;98630.81;5026549;28;20377;-56
2022/03/26 02:14:57;;;;;;;37.67;19.40;;;7.90;45.70;;;8.47;39.92;98637.78;5027027;28;20064;-56
2022/03/26 02:17:25;;;;;;;35.33;18.67;;;7.90;45.70;;;8.44;39.96;98635.41;5028257;28;20228;-57
2022/03/26 02:19:58;;;;;;;32.40;18.87;;;7.80;46.60;;;8.38;40.48;98633.22;5025772;28;20041;-56
2022/03/26 02:22:28;;;;;;;32.80;18.17;;;7.70;46.10;;;8.35;40.06;98628.13;5027658;28;20053;-57
2022/03/26 02:24:57;;;;;;;34.90;18.23;;;7.70;46.20;;;8.34;40.10;98627.31;5027461;28;20049;-58
2022/03/26 02:27:28;;;;;;;27.77;17.37;;;7.70;46.00;;;8.34;40.30;98626.47;5028622;28;20049;-56
2022/03/26 02:29:56;;;;;;;29.10;18.73;;;7.80;46.00;;;8.32;40.38;98623.94;5027917;28;20475;-56
2022/03/26 02:32:27;;;;;;;33.67;19.67;;;7.70;46.10;;;8.30;40.32;98633.81;5028597;28;20057;-57
2022/03/26 02:34:56;;;;;;;35.50;19.20;;;7.70;46.60;;;8.28;40.63;98625.16;5026246;28;20041;-57
2022/03/26 02:37:33;;;;;;;33.13;18.27;;;7.70;46.30;;;8.29;40.03;98634.78;5024642;28;20143;-57
2022/03/26 02:40:06;;;;;;;26.73;17.33;;;7.70;46.40;;;8.27;40.27;98628.75;5027495;28;20046;-56
2022/03/26 02:42:35;;;;;;;30.90;18.48;;;7.70;46.00;;;8.26;40.42;98633.22;5028099;28;20063;-56
2022/03/26 02:45:05;;;;;;;31.30;19.63;;;7.70;46.00;;;8.23;40.25;98628.16;5027393;28;20465;-58
2022/03/26 02:47:33;;;;;;;29.50;18.63;;;7.60;46.10;;;8.19;40.23;98632.00;5026189;28;20056;-56
2022/03/26 02:50:01;;;;;;;31.00;18.00;;;7.60;46.10;;;8.18;40.12;98629.47;5026360;28;20051;-57
2022/03/26 02:52:29;;;;;;;33.13;19.97;;;7.50;46.30;;;8.15;40.51;98627.91;5027308;28;20056;-55
2022/03/26 02:54:57;;;;;;;30.33;18.50;;;7.60;46.40;;;8.14;40.28;98625.38;5027463;28;20064;-57
2022/03/26 02:57:25;;;;;;;29.80;17.27;;;7.50;46.50;;;8.11;40.71;98620.34;5025797;28;20073;-57
2022/03/26 02:59:53;;;;;;;33.30;18.27;;;7.50;46.70;;;8.07;40.76;98620.56;5026790;28;20053;-54
2022/03/26 03:02:21;;;;;;;36.27;19.00;;;7.50;46.70;;;8.04;40.70;98620.78;5026604;28;20049;-55
2022/03/26 03:04:49;;;;;;;31.30;18.60;;;7.40;47.60;;;8.03;40.99;98623.59;5024828;28;20055;-56
2022/03/26 03:07:17;;;;;;;32.60;18.80;;;7.40;47.00;;;7.96;41.11;98622.38;5024790;28;20057;-55
2022/03/26 03:09:44;;;;;;;32.07;18.13;;;7.30;47.50;;;7.94;41.05;98613.72;5027202;28;20057;-57
2022/03/26 03:12:12;;;;;;;30.67;18.30;;;7.30;47.70;;;7.89;40.86;98614.09;5027503;28;20112;-57
2022/03/26 03:14:40;;;;;;;29.90;18.07;;;7.20;47.40;;;7.83;41.35;98618.06;5027679;28;20073;-57
2022/03/26 03:17:08;;;;;;;31.73;18.60;;;7.10;47.60;;;7.78;41.49;98620.22;5026673;28;20071;-56
2022/03/26 03:19:36;;;;;;;27.63;17.80;;;7.10;47.80;;;7.76;41.29;98619.50;5007220;28;20053;-57
2022/03/26 03:22:04;;;;;;;32.23;18.13;;;7.10;47.70;;;7.75;41.33;98620.44;5007139;28;20060;-57
2022/03/26 03:24:32;;;;;;;32.20;19.07;;;7.10;47.60;;;7.73;41.05;98611.75;5007151;28;20058;-58
2022/03/26 03:26:59;;;;;;;26.93;16.27;;;7.10;47.60;;;7.71;41.81;98616.34;5006152;28;20060;-56
2022/03/26 03:29:27;;;;;;;33.33;17.97;;;7.00;47.70;;;7.67;40.91;98623.69;5008501;28;20482;-57
2022/03/26 03:31:55;;;;;;;27.87;17.07;;;7.00;47.60;;;7.64;41.86;98616.00;5010052;28;20064;-57
2022/03/26 03:34:23;;;;;;;32.20;17.33;;;7.00;48.20;;;7.61;41.60;98618.88;5010019;28;20054;-58
2022/03/26 03:36:51;;;;;;;32.47;17.50;;;7.00;47.70;;;7.64;41.34;98612.50;5009203;28;20370;-58
2022/03/26 03:39:19;;;;;;;34.30;17.30;;;7.00;47.40;;;7.67;40.82;98617.53;5008789;28;20049;-57
2022/03/26 03:41:47;;;;;;;29.50;17.23;;;7.10;47.00;;;7.69;41.14;98611.16;5009026;28;20348;-57
2022/03/26 03:44:15;;;;;;;33.73;19.30;;;7.10;47.20;;;7.68;41.22;98622.75;5010108;28;20060;-56
2022/03/26 03:46:42;;;;;;;30.10;18.27;;;7.10;47.20;;;7.65;41.15;98615.00;5010835;28;20053;-57
2022/03/26 03:49:11;;;;;;;35.57;17.80;;;7.00;47.50;;;7.62;41.64;98612.63;5010941;28;20058;-58
2022/03/26 03:51:39;;;;;;;28.97;17.10;;;7.00;47.80;;;7.61;41.89;98618.03;5011221;28;20077;-57
2022/03/26 03:54:07;;;;;;;36.93;17.93;;;7.00;47.90;;;7.61;41.27;98620.69;5011387;28;20152;-55
2022/03/26 03:56:35;;;;;;;28.50;17.37;;;7.00;47.80;;;7.60;41.32;98616.31;5009659;28;20058;-57
2022/03/26 03:59:03;;;;;;;30.40;18.03;;;7.00;48.10;;;7.54;42.07;98609.72;5011521;28;20057;-58
2022/03/26 04:01:31;;;;;;;30.97;16.97;;;6.90;48.40;;;7.49;41.83;98602.09;5012623;28;20046;-57
2022/03/26 04:04:00;;;;;;;28.83;16.60;;;6.80;48.50;;;7.48;42.00;98605.72;5010106;28;20064;-58
2022/03/26 04:06:27;;;;;;;31.77;18.60;;;6.80;48.40;;;7.42;42.38;98605.34;5012404;28;20052;-55
2022/03/26 04:08:55;;;;;;;30.87;17.63;;;6.80;48.70;;;7.42;41.79;98608.00;5012231;28;20045;-55
2022/03/26 04:11:23;;;;;;;34.00;19.13;;;6.80;48.40;;;7.39;42.59;98598.50;5010321;28;20382;-56
2022/03/26 04:13:53;;;;;;;30.93;17.60;;;6.70;48.60;;;7.38;41.68;98607.38;5011763;28;20058;-57
2022/03/26 04:16:21;;;;;;;31.50;19.50;;;6.70;48.40;;;7.37;42.03;98610.19;5009786;28;20271;-56
2022/03/26 04:18:49;;;;;;;32.87;17.13;;;6.70;48.70;;;7.35;41.71;98602.34;5009790;28;20064;-57
2022/03/26 04:21:20;;;;;;;32.20;18.27;;;6.70;48.40;;;7.33;42.21;98608.69;5011119;28;20050;-55
2022/03/26 04:23:47;;;;;;;31.47;18.77;;;6.70;48.80;;;7.25;42.79;98604.84;5010521;28;20056;-58
2022/03/26 04:26:16;;;;;;;30.67;17.33;;;6.60;49.40;;;7.21;42.99;98608.69;5010444;28;20373;-57
2022/03/26 04:28:43;;;;;;;31.13;18.13;;;6.50;49.50;;;7.20;42.32;98606.16;5012662;28;20057;-57
2022/03/26 04:31:11;;;;;;;29.47;17.27;;;6.50;49.40;;;7.17;42.54;98609.03;5011197;28;20058;-56
2022/03/26 04:33:39;;;;;;;29.57;18.93;;;6.50;49.40;;;7.15;42.92;98605.66;5009538;28;20136;-57
2022/03/26 04:36:07;;;;;;;33.90;18.33;;;6.50;49.40;;;7.14;42.17;98606.63;5011162;28;20049;-56
2022/03/26 04:38:41;;;;;;;32.60;17.70;;;6.50;49.20;;;7.10;42.78;98603.34;5010385;28;20057;-57
2022/03/26 04:41:09;;;;;;;32.35;17.73;;;6.50;50.20;;;7.07;42.67;98600.94;5009801;28;20058;-57
2022/03/26 04:43:37;;;;;;;31.13;17.20;;;6.40;49.90;;;7.04;42.74;98604.66;5010832;28;20196;-57
2022/03/26 04:46:04;;;;;;;31.30;17.00;;;6.40;49.70;;;7.04;42.97;98609.13;5009910;28;20053;-57
2022/03/26 04:48:32;;;;;;;29.10;17.17;;;6.50;49.60;;;7.04;42.27;98612.59;5009434;28;20052;-57
2022/03/26 04:51:00;;;;;;;37.53;18.27;;;6.50;49.80;;;7.03;42.62;98615.34;5010530;28;20061;-57
2022/03/26 04:53:28;;;;;;;30.77;17.27;;;6.40;49.50;;;6.98;42.74;98618.38;5008927;28;20065;-58
2022/03/26 04:55:56;;;;;;;26.47;16.63;;;6.40;49.60;;;6.96;42.80;98625.56;5009823;28;20285;-59
2022/03/26 04:58:23;;;;;;;30.50;17.70;;;6.30;49.70;;;6.94;42.98;98623.97;5009507;28;20073;-56
2022/03/26 05:00:51;;;;;;;28.53;16.63;;;6.30;49.90;;;6.89;43.02;98621.69;5008849;28;20448;-58
2022/03/26 05:03:19;;;;;;;37.60;17.73;;;6.20;50.20;;;6.85;42.85;98626.38;5010490;28;20050;-57
2022/03/26 05:05:47;;;;;;;32.23;17.57;;;6.20;50.20;;;6.86;42.74;98624.56;5008902;28;20050;-57
2022/03/26 05:08:16;;;;;;;29.90;17.77;;;6.20;50.30;;;6.87;43.52;98620.97;5010198;28;20057;-55
2022/03/26 05:10:45;;;;;;;33.53;17.97;;;6.30;50.70;;;6.87;43.19;98627.09;5009422;28;20354;-58
2022/03/26 05:13:13;;;;;;;34.17;16.47;;;6.30;49.80;;;6.86;42.32;98630.72;5008282;28;20076;-58
2022/03/26 05:15:40;;;;;;;27.10;17.20;;;6.30;49.60;;;6.86;43.36;98632.50;5007996;28;20053;-57
2022/03/26 05:18:08;;;;;;;33.87;17.93;;;6.30;49.70;;;6.81;43.49;98634.66;5007518;28;20054;-58
2022/03/26 05:20:36;;;;;;;29.83;18.37;;;6.20;50.20;;;6.78;43.30;98630.41;5008043;28;20236;-57
2022/03/26 05:23:05;;;;;;;31.13;17.30;;;6.10;50.50;;;6.73;43.14;98632.56;5009753;28;20050;-55
2022/03/26 05:25:33;;;;;;;33.83;18.43;;;6.00;50.80;;;6.71;43.14;98626.56;5009005;28;20368;-57
2022/03/26 05:28:01;;;;;;;32.20;18.20;;;6.10;51.30;;;6.72;43.61;98630.88;5007051;28;20056;-57
2022/03/26 05:30:29;;;;;;;33.20;18.10;;;6.20;50.30;;;6.73;43.54;98637.00;5007815;28;20048;-58
2022/03/26 05:32:57;;;;;;;29.63;17.20;;;6.20;50.30;;;6.76;43.63;98639.44;5006038;28;20049;-57
2022/03/26 05:35:25;;;;;;;32.93;17.43;;;6.20;50.10;;;6.77;43.64;98646.44;5007403;28;20405;-57
2022/03/26 05:37:53;;;;;;;29.93;16.43;;;6.20;50.00;;;6.76;44.09;98652.66;5005488;28;20079;-58
2022/03/26 05:40:22;;;;;;;31.13;17.90;;;6.20;50.60;;;6.73;43.64;98659.03;5004860;28;20161;-58
2022/03/26 05:42:50;;;;;;;35.17;18.30;;;6.10;50.60;;;6.72;43.40;98656.50;5006898;28;20054;-57
2022/03/26 05:45:19;;;;;;;33.27;18.10;;;6.10;50.90;;;6.70;43.95;98662.72;5007043;28;20246;-57
2022/03/26 05:47:55;;;;;;;31.40;17.30;;;6.10;51.10;;;6.66;44.12;98668.38;5005333;28;20058;-58
2022/03/26 05:50:23;;;;;;;30.50;17.43;;;6.00;51.90;;;6.63;43.72;98660.63;5005793;28;20053;-58
2022/03/26 05:52:51;;;;;;;27.90;17.63;;;6.00;51.40;;;6.64;44.13;98671.13;5006777;28;20050;-58
2022/03/26 05:55:18;;;;;;;35.20;16.10;;;6.00;51.10;;;6.66;44.14;98668.38;5006610;28;20079;-56
2022/03/26 05:57:47;;;;;;;30.37;17.87;;;6.00;51.60;;;6.62;44.40;98673.03;5005597;28;20057;-58
2022/03/26 06:00:16;;;;;;;29.23;17.20;;;6.00;51.10;;;6.65;43.68;98672.81;5004890;28;20057;-58
2022/03/26 06:02:47;;;;;;;31.30;17.03;;;6.10;51.10;;;6.69;44.58;98676.09;5006597;28;20052;-58
2022/03/26 06:05:16;;;;;;;29.87;15.70;;;6.20;51.00;;;6.70;44.40;98675.13;5006085;28;20069;-59
2022/03/26 06:07:44;;;;;;;28.33;16.40;;;6.20;51.10;;;6.70;43.90;98678.59;5006272;28;20057;-58
2022/03/26 06:10:12;;;;;;;27.50;16.93;;;6.20;51.10;;;6.73;43.95;98692.56;5004870;28;20057;-58
2022/03/26 06:12:44;;;;;;;28.33;16.10;;;6.20;50.90;;;6.78;44.08;98691.28;5007216;28;20709;-58
2022/03/26 06:15:13;;;;;;;27.97;16.00;;;6.30;50.60;;;6.84;44.22;98700.59;4988828;28;20087;-58
2022/03/26 06:18:03;;;;;;;28.07;17.13;;;6.40;50.50;;;6.90;44.32;98700.13;5004147;28;20235;-58
2022/03/26 06:20:31;;;;;;;31.13;16.27;;;6.50;50.50;;;6.94;44.38;98704.28;5004008;28;20046;-57
2022/03/26 06:23:00;;;;;;;33.77;16.63;;;6.50;50.60;;;6.96;43.76;98705.00;5004216;28;20060;-56
2022/03/26 06:25:31;;;;;;;32.53;16.97;;;6.60;50.70;;;7.03;43.75;98708.03;5005362;28;20057;-55
2022/03/26 06:28:00;;;;;;;27.63;16.07;;;6.60;50.20;;;7.07;43.63;98710.34;5005055;28;20046;-57
2022/03/26 06:30:28;;;;;;;30.93;15.53;;;6.70;50.40;;;7.12;44.12;98717.13;5005208;28;20065;-53
2022/03/26 06:32:56;;;;;;;28.80;16.43;;;6.70;50.00;;;7.13;43.80;98719.63;5005908;28;20266;-56
2022/03/26 06:35:24;;;;;;;33.73;16.90;;;6.80;49.80;;;7.19;44.38;98721.84;5005703;28;20076;-54
2022/03/26 06:37:52;;;;;;;34.23;17.50;;;6.90;49.80;;;7.24;44.41;98721.50;5004476;28;20054;-57
2022/03/26 06:40:20;;;;;;;29.47;16.50;;;6.90;50.10;;;7.27;43.98;98722.13;5004194;28;20045;-56
2022/03/26 06:42:47;;;;;;;26.07;15.90;;;6.90;50.00;;;7.30;43.59;98721.88;5005235;28;20042;-56
2022/03/26 06:45:17;;;;;;;29.47;16.37;;;6.90;50.00;;;7.34;44.02;98721.66;5003927;28;20367;-58
2022/03/26 06:47:45;;;;;;;30.30;17.17;;;6.90;50.10;;;7.38;43.79;98721.31;5003428;28;20068;-56
2022/03/26 06:50:13;;;;;;;26.53;16.07;;;7.00;50.80;;;7.42;43.98;98721.91;5004867;28;20366;-55
2022/03/26 06:52:41;;;;;;;31.43;16.17;;;7.00;50.20;;;7.45;44.19;98722.53;5004909;28;20053;-57
2022/03/26 06:55:09;;;;;;;25.67;15.97;;;7.10;50.00;;;7.46;44.28;98734.84;5005143;28;20042;-57
2022/03/26 06:57:37;;;;;;;29.20;16.40;;;7.10;50.00;;;7.48;44.19;98738.22;5005761;28;20049;-56
2022/03/26 07:00:06;;;;;;;26.77;16.00;;;7.10;50.20;;;7.53;44.22;98742.31;5003651;28;20045;-52
2022/03/26 07:02:34;;;;;;;28.03;16.40;;;7.10;50.20;;;7.54;44.37;98742.22;5005804;28;20045;-54
2022/03/26 07:05:03;;;;;;;30.07;17.07;;;7.20;50.20;;;7.62;43.67;98744.28;5004562;28;20045;-55
2022/03/26 07:07:31;;;;;;;26.17;16.10;;;7.20;50.20;;;7.66;44.54;98735.16;5004691;28;20054;-58
2022/03/26 07:09:59;;;;;;;28.17;15.73;;;7.30;50.10;;;7.69;44.03;98733.09;5004782;28;20053;-54
2022/03/26 07:12:27;;;;;;;27.13;15.47;;;7.30;50.80;;;7.72;44.57;98734.69;4987449;28;20060;-56
2022/03/26 07:14:55;;;;;;;29.97;16.93;;;7.40;50.20;;;7.76;43.81;98735.28;5004984;28;20261;-57
2022/03/26 07:17:23;;;;;;;28.80;16.50;;;7.40;50.20;;;7.77;44.09;98737.81;5006015;28;20354;-56
2022/03/26 07:19:51;;;;;;;29.73;16.20;;;7.40;50.00;;;7.80;43.73;98734.94;5008622;28;20066;-56
2022/03/26 07:22:19;;;;;;;31.07;16.00;;;7.40;49.90;;;7.81;43.94;98733.97;5008526;28;20049;-57
2022/03/26 07:24:47;;;;;;;26.97;15.30;;;7.50;49.90;;;7.85;43.88;98751.34;5007317;28;20041;-55
2022/03/26 07:27:15;;;;;;;27.70;15.83;;;7.50;49.80;;;7.87;44.06;98749.41;5008749;28;20149;-56
2022/03/26 07:29:42;;;;;;;24.70;15.47;;;7.50;49.70;;;7.91;43.75;98749.16;5008296;28;20252;-55
2022/03/26 07:32:10;;;;;;;26.83;15.90;;;7.60;49.40;;;7.94;43.56;98747.13;5008056;28;20057;-57
2022/03/26 07:34:38;;;;;;;25.87;15.73;;;7.60;49.50;;;7.96;43.61;98747.84;5007680;28;20050;-57
2022/03/26 07:37:06;;;;;;;28.57;16.63;;;7.70;49.70;;;7.99;44.36;98752.09;5008202;28;20080;-57
2022/03/26 07:39:33;;;;;;;25.73;16.20;;;7.70;50.00;;;8.03;44.19;98762.34;5008099;28;20061;-57
2022/03/26 07:42:01;;;;;;;25.67;15.13;;;7.70;49.90;;;8.06;44.13;98753.28;5007991;28;20405;-54
2022/03/26 07:44:31;;;;;;;29.97;14.83;;;7.80;50.00;;;8.12;43.94;98749.31;5008489;28;20064;-57
2022/03/26 07:46:59;;;;;;;26.60;16.87;;;7.90;49.90;;;8.13;43.95;98751.88;5008667;28;20077;-56
2022/03/26 07:49:27;;;;;;;27.23;15.70;;;7.90;49.50;;;8.20;44.29;98750.44;5008506;28;20350;-56
2022/03/26 07:51:54;;;;;;;30.23;15.83;;;8.00;49.40;;;8.26;44.39;98754.41;5008529;28;20065;-58
2022/03/26 07:54:23;;;;;;;26.27;15.53;;;8.10;49.40;;;8.33;44.12;98757.44;5006808;28;20060;-58
2022/03/26 07:56:51;;;;;;;31.00;16.43;;;8.10;49.40;;;8.36;44.28;98757.19;5005883;28;20061;-58
2022/03/26 07:59:19;;;;;;;29.23;17.57;;;8.10;49.30;;;8.41;43.54;98762.97;5008524;28;20057;-57
2022/03/26 08:01:47;;;;;;;28.50;15.93;;;8.20;49.30;;;8.43;44.03;98759.28;5006326;28;20057;-60
2022/03/26 08:04:15;;;;;;;29.23;17.03;;;8.20;49.30;;;8.48;43.75;98753.59;5008276;28;20352;-58
2022/03/26 08:06:43;;;;;;;27.37;15.67;;;8.20;49.20;;;8.55;43.59;98757.47;5005859;28;20046;-57
2022/03/26 08:09:10;;;;;;;28.63;16.33;;;8.30;49.10;;;8.61;43.99;98764.09;5007075;28;20058;-57
2022/03/26 08:11:38;;;;;;;30.83;16.60;;;8.40;48.80;;;8.66;43.51;98770.72;5008429;28;20073;-58
2022/03/26 08:14:06;;;;;;;24.70;15.83;;;8.50;48.80;;;8.72;43.68;98765.91;5007564;28;20071;-57
2022/03/26 08:16:34;;;;;;;30.00;16.50;;;8.50;48.40;;;8.78;43.83;98768.06;5006525;28;20054;-58
2022/03/26 08:19:02;;;;;;;30.97;17.80;;;8.60;49.20;;;8.82;43.73;98762.41;5006466;28;20053;-58
2022/03/26 08:21:32;;;;;;;33.47;16.07;;;8.70;48.60;;;8.87;43.18;98770.81;5007769;28;20049;-56
2022/03/26 08:24:00;;;;;;;25.00;15.77;;;8.70;48.40;;;8.93;43.47;98780.09;5007715;28;20064;-57
2022/03/26 08:26:29;;;;;;;35.20;18.47;;;8.70;48.40;;;8.99;43.23;98776.13;5004996;28;20312;-58
2022/03/26 08:29:00;;;;;;;27.73;17.00;;;8.80;48.20;;;9.03;43.35;98780.22;5008488;28;20060;-57
2022/03/26 08:31:30;;;;;;;31.20;17.43;;;8.90;48.30;;;9.06;43.19;98772.84;5006896;28;20061;-57
2022/03/26 08:34:00;;;;;;;29.40;16.37;;;8.90;48.10;;;9.12;43.25;98773.31;5006659;28;20303;-58
2022/03/26 08:36:28;;;;;;;33.33;18.50;;;9.00;48.00;;;9.18;43.22;98781.63;5005552;28;20312;-57
2022/03/26 08:38:56;;;;;;;23.40;14.73;;;9.10;48.00;;;9.24;43.24;98778.47;5004902;28;20072;-56
2022/03/26 08:41:24;;;;;;;33.33;18.57;;;9.10;47.70;;;9.29;43.06;98777.28;5005433;28;20042;-58
2022/03/26 08:43:52;;;;;;;31.63;17.90;;;9.20;47.80;;;9.34;43.12;98781.22;5007319;28;20141;-58
2022/03/26 08:46:21;;;;;;;29.70;17.13;;;9.20;47.80;;;9.40;42.88;98785.19;5006555;28;20054;-59
2022/03/26 08:48:50;;;;;;;29.20;17.67;;;9.30;47.70;;;9.45;42.94;98791.81;5005871;28;20378;-58
2022/03/26 08:51:18;;;;;;;29.13;17.43;;;9.30;47.60;;;9.50;42.86;98783.47;5007256;28;20050;-58
2022/03/26 08:53:46;;;;;;;29.27;16.33;;;9.40;47.30;;;9.57;42.81;98794.44;5006540;28;20060;-57
2022/03/26 08:56:14;;;;;;;26.83;15.83;;;9.50;47.30;;;9.61;42.68;98790.56;5006985;28;20138;-58
2022/03/26 08:58:41;;;;;;;31.93;18.50;;;9.50;47.30;;;9.68;42.67;98786.44;5006264;28;20069;-58
2022/03/26 09:01:11;;;;;;;30.90;16.70;;;9.60;47.10;;;9.73;42.62;98794.00;5032571;28;20053;-58
2022/03/26 09:03:40;;;;;;;30.57;18.13;;;9.70;47.10;;;9.78;42.75;98783.84;5029503;28;20243;-56
2022/03/26 09:06:10;;;;;;;29.87;18.90;;;9.70;47.20;;;9.84;42.66;98784.16;5028645;28;20052;-58
2022/03/26 09:08:38;;;;;;;32.80;17.57;;;9.80;47.10;;;9.91;42.45;98789.81;5037278;28;20049;-57
2022/03/26 09:11:06;;;;;;;34.50;17.97;;;9.80;46.80;;;9.97;42.43;98786.63;5033229;28;20438;-56
2022/03/26 09:13:34;;;;;;;35.10;19.37;;;9.90;46.40;;;10.01;42.30;98789.88;5034722;28;20045;-57
2022/03/26 09:16:02;;;;;;;31.93;17.93;;;9.90;46.50;;;10.05;42.35;98800.13;5034244;28;20080;-57
2022/03/26 09:18:30;;;;;;;31.23;18.40;;;10.00;46.40;;;10.11;42.10;98798.78;5035123;28;20055;-57
2022/03/26 09:20:58;;;;;;;34.93;19.10;;;10.00;46.10;;;10.16;42.05;98795.75;5027430;28;20065;-56
2022/03/26 09:23:32;;;;;;;30.48;19.05;;;10.10;46.00;;;10.23;41.85;98783.56;5026870;28;20037;-56
2022/03/26 09:26:04;;;;;;;32.47;18.50;;;10.20;45.90;;;10.29;42.00;98787.53;5008777;28;20053;-57
2022/03/26 09:28:32;;;;;;;32.83;19.33;;;10.30;45.90;;;10.34;41.79;98783.53;5025931;28;20063;-58
2022/03/26 09:30:59;;;;;;;32.97;18.77;;;10.30;45.70;;;10.39;41.53;98786.66;5025672;28;20567;-56
2022/03/26 09:33:27;;;;;;;32.40;18.30;;;10.40;45.30;;;10.44;41.47;98784.41;5026200;28;20063;-54
2022/03/26 09:35:55;;;;;;;35.27;18.93;;;10.50;45.10;;;10.51;41.53;98784.75;5025890;28;20079;-55
2022/03/26 09:38:26;;;;;;;31.80;17.50;;;10.50;45.40;;;10.59;41.39;98784.91;5024204;28;20061;-56
2022/03/26 09:40:56;;;;;;;31.47;18.83;;;10.60;45.30;;;10.65;41.47;98783.53;5025053;28;20053;-53
2022/03/26 09:43:28;;;;;;;35.13;18.53;;;10.70;45.10;;;10.71;41.48;98776.84;5023808;28;20326;-53
2022/03/26 09:45:56;;;;;;;31.50;20.37;;;10.70;45.00;;;10.75;41.63;98789.75;5023409;28;20076;-54
2022/03/26 09:48:23;;;;;;;31.67;19.97;;;10.70;45.10;;;10.80;40.97;98776.88;5024806;28;20049;-55
2022/03/26 09:50:53;;;;;;;30.73;18.20;;;10.80;44.50;;;10.88;40.93;98791.34;5025632;28;20071;-56
2022/03/26 09:53:22;;;;;;;31.33;18.40;;;10.90;44.40;;;10.94;41.29;98780.16;5026053;28;20049;-56
2022/03/26 09:55:51;;;;;;;32.03;21.73;;;11.00;44.50;;;11.02;40.74;98770.47;5026888;28;20255;-55
2022/03/26 09:58:19;;;;;;;32.60;18.27;;;11.00;44.40;;;11.09;40.84;98772.59;5024530;28;20060;-56
2022/03/26 10:00:49;;;;;;;36.33;19.00;;;11.10;44.10;;;11.18;40.61;98775.28;5024073;28;20067;-55
2022/03/26 10:03:18;;;;;;;39.83;20.07;;;11.30;43.90;;;11.27;40.25;98775.47;5025006;28;20259;-56
2022/03/26 10:05:47;;;;;;;33.87;18.77;;;11.30;43.70;;;11.33;40.60;98774.91;5025924;28;20052;-55
2022/03/26 10:08:16;;;;;;;32.37;20.40;;;11.40;43.50;;;11.41;40.08;98780.38;5023854;28;20236;-55
2022/03/26 10:10:46;;;;;;;33.00;20.05;;;11.40;43.00;;;11.49;39.29;98774.34;5024365;28;20054;-56
2022/03/26 10:13:43;;;;;;;36.70;20.27;;;11.50;42.60;;;11.56;39.41;98772.81;5024767;28;20076;-55
2022/03/26 10:16:13;;;;;;;30.37;20.00;;;11.60;41.30;;;11.62;39.66;98759.75;5024550;28;20051;-53
2022/03/26 10:18:45;;;;;;;33.03;20.40;;;11.70;43.60;;;11.71;39.76;98768.75;5024794;28;20059;-56
2022/03/26 10:21:17;;;;;;;40.43;20.93;;;11.80;42.60;;;11.78;39.24;98764.50;5023447;28;20091;-56
2022/03/26 10:23:52;;;;;;;40.72;20.45;;;11.80;42.00;;;11.84;38.25;98757.75;5024059;28;20053;-55